sensor_id;sensor_type;location;lat;lon;timestamp;temperature;humidity
69324;DHT22;56470;47.350;8.718;2023-03-23T00:01:48;14.59;53.25
69324;DHT22;56470;47.350;8.718;2023-03-23T00:04:17;14.57;53.09
69324;DHT22;56470;47.350;8.718;2023-03-23T00:06:43;14.56;53.32
69324;DHT22;56470;47.350;8.718;2023-03-23T00:09:11;14.56;53.48
69324;DHT22;56470;47.350;8.718;2023-03-23T00:11:37;14.60;53.47
69324;DHT22;56470;47.350;8.718;2023-03-23T00:14:04;14.57;53.40
69324;DHT22;56470;47.350;8.718;2023-03-23T00:16:32;14.59;53.30
69324;DHT22;56470;47.350;8.718;2023-03-23T00:19:05;14.57;53.84
69324;DHT22;56470;47.350;8.718;2023-03-23T00:21:33;14.56;53.66
69324;DHT22;56470;47.350;8.718;2023-03-23T00:24:04;14.56;53.76
69324;DHT22;56470;47.350;8.718;2023-03-23T00:26:32;14.55;53.79
69324;DHT22;56470;47.350;8.718;2023-03-23T00:28:59;14.53;53.80
69324;DHT22;56470;47.350;8.718;2023-03-23T00:31:26;14.50;53.78
69324;DHT22;56470;47.350;8.718;2023-03-23T00:33:57;14.53;53.96
69324;DHT22;56470;47.350;8.718;2023-03-23T00:36:23;14.50;54.19
69324;DHT22;56470;47.350;8.718;2023-03-23T00:38:49;14.51;54.10
69324;DHT22;56470;47.350;8.718;2023-03-23T00:41:14;14.47;54.23
69324;DHT22;56470;47.350;8.718;2023-03-23T00:43:40;14.47;54.24
69324;DHT22;56470;47.350;8.718;2023-03-23T00:46:06;14.47;54.06
69324;DHT22;56470;47.350;8.718;2023-03-23T00:48:36;14.47;54.11
69324;DHT22;56470;47.350;8.718;2023-03-23T00:51:03;14.44;54.23
69324;DHT22;56470;47.350;8.718;2023-03-23T00:53:35;14.40;54.34
69324;DHT22;56470;47.350;8.718;2023-03-23T00:56:00;14.39;54.29
69324;DHT22;56470;47.350;8.718;2023-03-23T00:58:26;14.34;54.29
69324;DHT22;56470;47.350;8.718;2023-03-23T01:00:51;14.34;54.36
69324;DHT22;56470;47.350;8.718;2023-03-23T01:03:16;14.34;54.33
69324;DHT22;56470;47.350;8.718;2023-03-23T01:05:45;14.36;54.32
69324;DHT22;56470;47.350;8.718;2023-03-23T01:08:13;14.34;54.37
69324;DHT22;56470;47.350;8.718;2023-03-23T01:10:39;14.34;54.42
69324;DHT22;56470;47.350;8.718;2023-03-23T01:13:06;14.32;54.57
69324;DHT22;56470;47.350;8.718;2023-03-23T01:15:32;14.32;54.69
69324;DHT22;56470;47.350;8.718;2023-03-23T01:17:57;14.29;54.49
69324;DHT22;56470;47.350;8.718;2023-03-23T01:20:23;14.29;54.62
69324;DHT22;56470;47.350;8.718;2023-03-23T01:22:49;14.23;54.85
69324;DHT22;56470;47.350;8.718;2023-03-23T01:25:15;14.13;54.86
69324;DHT22;56470;47.350;8.718;2023-03-23T01:27:40;14.06;54.91
69324;DHT22;56470;47.350;8.718;2023-03-23T01:30:07;14.00;55.02
69324;DHT22;56470;47.350;8.718;2023-03-23T01:32:33;13.97;55.11
69324;DHT22;56470;47.350;8.718;2023-03-23T01:34:59;13.97;55.29
69324;DHT22;56470;47.350;8.718;2023-03-23T01:37:25;14.00;55.36
69324;DHT22;56470;47.350;8.718;2023-03-23T01:39:55;14.02;55.31
69324;DHT22;56470;47.350;8.718;2023-03-23T01:42:23;14.04;55.23
69324;DHT22;56470;47.350;8.718;2023-03-23T01:47:14;14.00;55.29
69324;DHT22;56470;47.350;8.718;2023-03-23T01:49:43;13.89;55.31
69324;DHT22;56470;47.350;8.718;2023-03-23T01:52:14;13.87;55.18
69324;DHT22;56470;47.350;8.718;2023-03-23T01:54:42;13.92;55.20
69324;DHT22;56470;47.350;8.718;2023-03-23T01:57:13;13.95;55.09
69324;DHT22;56470;47.350;8.718;2023-03-23T01:59:42;13.91;54.98
69324;DHT22;56470;47.350;8.718;2023-03-23T02:02:11;13.92;54.89
69324;DHT22;56470;47.350;8.718;2023-03-23T02:04:40;13.87;54.95
69324;DHT22;56470;47.350;8.718;2023-03-23T02:07:07;13.85;54.87
69324;DHT22;56470;47.350;8.718;2023-03-23T02:09:33;13.82;54.93
69324;DHT22;56470;47.350;8.718;2023-03-23T02:11:58;13.87;54.90
69324;DHT22;56470;47.350;8.718;2023-03-23T02:14:26;13.88;54.90
69324;DHT22;56470;47.350;8.718;2023-03-23T02:35:58;14.30;53.68
69324;DHT22;56470;47.350;8.718;2023-03-23T02:38:35;14.41;53.33
69324;DHT22;56470;47.350;8.718;2023-03-23T02:41:03;14.51;53.47
69324;DHT22;56470;47.350;8.718;2023-03-23T02:43:33;14.59;53.35
69324;DHT22;56470;47.350;8.718;2023-03-23T02:46:00;14.67;53.34
69324;DHT22;56470;47.350;8.718;2023-03-23T02:48:28;14.74;53.35
69324;DHT22;56470;47.350;8.718;2023-03-23T02:50:55;14.81;53.38
69324;DHT22;56470;47.350;8.718;2023-03-23T02:53:23;14.85;53.05
69324;DHT22;56470;47.350;8.718;2023-03-23T02:55:50;14.89;53.05
69324;DHT22;56470;47.350;8.718;2023-03-23T02:58:18;14.95;52.96
69324;DHT22;56470;47.350;8.718;2023-03-23T03:00:44;14.94;52.73
69324;DHT22;56470;47.350;8.718;2023-03-23T03:03:15;14.96;52.71
69324;DHT22;56470;47.350;8.718;2023-03-23T03:08:50;14.89;52.59
69324;DHT22;56470;47.350;8.718;2023-03-23T03:11:18;14.84;52.43
69324;DHT22;56470;47.350;8.718;2023-03-23T03:13:58;14.70;52.20
69324;DHT22;56470;47.350;8.718;2023-03-23T03:16:52;14.63;52.32
69324;DHT22;56470;47.350;8.718;2023-03-23T03:19:25;14.53;52.50
69324;DHT22;56470;47.350;8.718;2023-03-23T03:21:53;14.51;52.61
69324;DHT22;56470;47.350;8.718;2023-03-23T03:24:20;14.46;52.64
69324;DHT22;56470;47.350;8.718;2023-03-23T03:26:49;14.41;52.66
69324;DHT22;56470;47.350;8.718;2023-03-23T03:29:17;14.36;52.75
69324;DHT22;56470;47.350;8.718;2023-03-23T03:31:44;14.37;52.68
69324;DHT22;56470;47.350;8.718;2023-03-23T03:34:11;14.41;52.57
69324;DHT22;56470;47.350;8.718;2023-03-23T03:36:37;14.44;52.51
69324;DHT22;56470;47.350;8.718;2023-03-23T03:39:07;14.53;52.39
69324;DHT22;56470;47.350;8.718;2023-03-23T03:41:35;14.57;52.17
69324;DHT22;56470;47.350;8.718;2023-03-23T03:44:04;14.63;52.24
69324;DHT22;56470;47.350;8.718;2023-03-23T03:46:32;14.67;52.18
69324;DHT22;56470;47.350;8.718;2023-03-23T03:48:58;14.63;52.08
69324;DHT22;56470;47.350;8.718;2023-03-23T03:51:25;14.63;52.10
69324;DHT22;56470;47.350;8.718;2023-03-23T03:53:51;14.60;51.98
69324;DHT22;56470;47.350;8.718;2023-03-23T03:56:17;14.57;52.01
69324;DHT22;56470;47.350;8.718;2023-03-23T03:58:42;14.56;51.97
69324;DHT22;56470;47.350;8.718;2023-03-23T04:01:09;14.55;51.99
69324;DHT22;56470;47.350;8.718;2023-03-23T04:03:38;14.55;52.00
69324;DHT22;56470;47.350;8.718;2023-03-23T04:06:04;14.51;51.87
69324;DHT22;56470;47.350;8.718;2023-03-23T04:08:29;14.56;51.92
69324;DHT22;56470;47.350;8.718;2023-03-23T04:10:55;14.55;51.90
69324;DHT22;56470;47.350;8.718;2023-03-23T04:13:21;14.51;51.92
69324;DHT22;56470;47.350;8.718;2023-03-23T04:15:46;14.57;51.97
69324;DHT22;56470;47.350;8.718;2023-03-23T04:18:13;14.60;52.06
69324;DHT22;56470;47.350;8.718;2023-03-23T04:20:41;14.68;52.08
69324;DHT22;56470;47.350;8.718;2023-03-23T04:23:06;14.71;52.06
69324;DHT22;56470;47.350;8.718;2023-03-23T04:25:32;14.71;52.13
69324;DHT22;56470;47.350;8.718;2023-03-23T04:27:58;14.71;52.31
69324;DHT22;56470;47.350;8.718;2023-03-23T04:30:27;14.68;52.31
69324;DHT22;56470;47.350;8.718;2023-03-23T04:32:53;14.64;52.51
69324;DHT22;56470;47.350;8.718;2023-03-23T04:35:24;14.59;52.62
69324;DHT22;56470;47.350;8.718;2023-03-23T04:37:52;14.53;52.82
69324;DHT22;56470;47.350;8.718;2023-03-23T04:40:18;14.49;52.83
69324;DHT22;56470;47.350;8.718;2023-03-23T04:42:44;14.43;53.02
69324;DHT22;56470;47.350;8.718;2023-03-23T04:45:12;14.40;53.22
69324;DHT22;56470;47.350;8.718;2023-03-23T04:47:39;14.32;53.20
69324;DHT22;56470;47.350;8.718;2023-03-23T04:50:10;14.29;53.53
69324;DHT22;56470;47.350;8.718;2023-03-23T04:52:37;14.25;53.57
69324;DHT22;56470;47.350;8.718;2023-03-23T04:55:08;14.21;53.72
69324;DHT22;56470;47.350;8.718;2023-03-23T04:57:34;14.22;53.58
69324;DHT22;56470;47.350;8.718;2023-03-23T05:00:01;14.23;53.54
69324;DHT22;56470;47.350;8.718;2023-03-23T05:02:29;14.33;53.59
69324;DHT22;56470;47.350;8.718;2023-03-23T05:04:56;14.36;53.60
69324;DHT22;56470;47.350;8.718;2023-03-23T05:07:22;14.36;53.51
69324;DHT22;56470;47.350;8.718;2023-03-23T05:09:48;14.32;53.64
69324;DHT22;56470;47.350;8.718;2023-03-23T05:12:13;14.28;53.72
69324;DHT22;56470;47.350;8.718;2023-03-23T05:14:42;14.29;54.38
69324;DHT22;56470;47.350;8.718;2023-03-23T05:17:08;14.34;53.93
69324;DHT22;56470;47.350;8.718;2023-03-23T05:19:34;14.40;53.88
69324;DHT22;56470;47.350;8.718;2023-03-23T05:22:01;14.39;53.70
69324;DHT22;56470;47.350;8.718;2023-03-23T05:24:32;14.40;53.60
69324;DHT22;56470;47.350;8.718;2023-03-23T05:26:58;14.39;53.46
69324;DHT22;56470;47.350;8.718;2023-03-23T05:29:24;14.43;53.53
69324;DHT22;56470;47.350;8.718;2023-03-23T05:31:51;14.51;53.42
69324;DHT22;56470;47.350;8.718;2023-03-23T05:34:18;14.63;53.34
69324;DHT22;56470;47.350;8.718;2023-03-23T05:36:43;14.68;53.22
69324;DHT22;56470;47.350;8.718;2023-03-23T05:39:11;14.68;53.13
69324;DHT22;56470;47.350;8.718;2023-03-23T05:41:36;14.75;53.21
69324;DHT22;56470;47.350;8.718;2023-03-23T05:44:03;14.80;53.39
69324;DHT22;56470;47.350;8.718;2023-03-23T05:46:28;14.85;53.30
69324;DHT22;56470;47.350;8.718;2023-03-23T05:48:54;14.91;53.16
69324;DHT22;56470;47.350;8.718;2023-03-23T05:51:19;14.95;53.12
69324;DHT22;56470;47.350;8.718;2023-03-23T05:53:45;14.96;53.05
69324;DHT22;56470;47.350;8.718;2023-03-23T05:56:12;14.98;53.09
69324;DHT22;56470;47.350;8.718;2023-03-23T05:58:38;14.99;53.02
69324;DHT22;56470;47.350;8.718;2023-03-23T06:01:07;15.01;52.95
69324;DHT22;56470;47.350;8.718;2023-03-23T06:03:32;15.05;52.89
69324;DHT22;56470;47.350;8.718;2023-03-23T06:06:00;15.06;52.98
69324;DHT22;56470;47.350;8.718;2023-03-23T06:08:25;15.08;52.99
69324;DHT22;56470;47.350;8.718;2023-03-23T06:10:51;15.11;52.89
69324;DHT22;56470;47.350;8.718;2023-03-23T06:13:16;15.13;52.91
69324;DHT22;56470;47.350;8.718;2023-03-23T06:15:42;15.13;52.83
69324;DHT22;56470;47.350;8.718;2023-03-23T06:18:08;15.15;52.78
69324;DHT22;56470;47.350;8.718;2023-03-23T06:20:33;15.15;52.86
69324;DHT22;56470;47.350;8.718;2023-03-23T06:23:00;15.16;52.75
69324;DHT22;56470;47.350;8.718;2023-03-23T06:25:25;15.12;52.76
69324;DHT22;56470;47.350;8.718;2023-03-23T06:27:51;15.09;52.84
69324;DHT22;56470;47.350;8.718;2023-03-23T06:30:17;15.03;52.76
69324;DHT22;56470;47.350;8.718;2023-03-23T06:32:42;14.98;52.87
69324;DHT22;56470;47.350;8.718;2023-03-23T06:35:11;14.98;53.06
69324;DHT22;56470;47.350;8.718;2023-03-23T06:37:37;14.94;53.18
69324;DHT22;56470;47.350;8.718;2023-03-23T06:40:04;14.98;53.30
69324;DHT22;56470;47.350;8.718;2023-03-23T06:42:31;15.03;53.24
69324;DHT22;56470;47.350;8.718;2023-03-23T06:44:57;15.03;53.41
69324;DHT22;56470;47.350;8.718;2023-03-23T06:47:24;15.08;53.37
69324;DHT22;56470;47.350;8.718;2023-03-23T06:49:49;15.11;53.32
69324;DHT22;56470;47.350;8.718;2023-03-23T06:52:15;15.09;52.80
69324;DHT22;56470;47.350;8.718;2023-03-23T06:54:40;15.03;52.69
69324;DHT22;56470;47.350;8.718;2023-03-23T06:57:07;14.91;52.66
69324;DHT22;56470;47.350;8.718;2023-03-23T06:59:32;14.91;53.12
69324;DHT22;56470;47.350;8.718;2023-03-23T07:01:58;14.88;53.04
69324;DHT22;56470;47.350;8.718;2023-03-23T07:04:23;14.88;53.32
69324;DHT22;56470;47.350;8.718;2023-03-23T07:06:49;14.85;53.44
69324;DHT22;56470;47.350;8.718;2023-03-23T07:09:14;14.84;53.36
69324;DHT22;56470;47.350;8.718;2023-03-23T07:11:40;14.85;53.46
69324;DHT22;56470;47.350;8.718;2023-03-23T07:14:06;14.94;53.52
69324;DHT22;56470;47.350;8.718;2023-03-23T07:16:34;15.03;53.56
69324;DHT22;56470;47.350;8.718;2023-03-23T07:19:00;15.13;53.55
69324;DHT22;56470;47.350;8.718;2023-03-23T07:21:25;15.26;53.58
69324;DHT22;56470;47.350;8.718;2023-03-23T07:23:51;15.35;53.37
69324;DHT22;56470;47.350;8.718;2023-03-23T07:26:16;15.42;53.07
69324;DHT22;56470;47.350;8.718;2023-03-23T07:28:42;15.50;53.04
69324;DHT22;56470;47.350;8.718;2023-03-23T07:31:07;15.57;52.97
69324;DHT22;56470;47.350;8.718;2023-03-23T07:33:35;15.65;52.89
69324;DHT22;56470;47.350;8.718;2023-03-23T07:36:01;15.71;52.72
69324;DHT22;56470;47.350;8.718;2023-03-23T07:38:28;15.75;52.78
69324;DHT22;56470;47.350;8.718;2023-03-23T07:40:54;15.77;52.80
69324;DHT22;56470;47.350;8.718;2023-03-23T07:43:19;15.75;52.82
69324;DHT22;56470;47.350;8.718;2023-03-23T07:45:45;15.78;52.94
69324;DHT22;56470;47.350;8.718;2023-03-23T07:48:11;15.81;52.96
69324;DHT22;56470;47.350;8.718;2023-03-23T07:50:36;15.85;52.98
69324;DHT22;56470;47.350;8.718;2023-03-23T07:53:03;15.84;52.99
69324;DHT22;56470;47.350;8.718;2023-03-23T07:55:29;15.81;53.16
69324;DHT22;56470;47.350;8.718;2023-03-23T07:57:54;15.87;53.29
69324;DHT22;56470;47.350;8.718;2023-03-23T08:00:21;15.88;53.30
69324;DHT22;56470;47.350;8.718;2023-03-23T08:02:50;15.91;53.45
69324;DHT22;56470;47.350;8.718;2023-03-23T08:05:16;15.92;53.67
69324;DHT22;56470;47.350;8.718;2023-03-23T08:07:43;15.97;53.73
69324;DHT22;56470;47.350;8.718;2023-03-23T08:10:12;15.99;53.83
69324;DHT22;56470;47.350;8.718;2023-03-23T08:12:39;16.02;53.77
69324;DHT22;56470;47.350;8.718;2023-03-23T08:15:05;16.06;53.83
69324;DHT22;56470;47.350;8.718;2023-03-23T08:17:32;16.12;53.77
69324;DHT22;56470;47.350;8.718;2023-03-23T08:19:58;16.12;53.65
69324;DHT22;56470;47.350;8.718;2023-03-23T08:22:23;16.12;53.54
69324;DHT22;56470;47.350;8.718;2023-03-23T08:24:48;16.13;53.58
69324;DHT22;56470;47.350;8.718;2023-03-23T08:27:14;16.15;53.76
69324;DHT22;56470;47.350;8.718;2023-03-23T08:29:39;16.12;53.72
69324;DHT22;56470;47.350;8.718;2023-03-23T08:32:06;16.06;53.40
69324;DHT22;56470;47.350;8.718;2023-03-23T08:34:31;16.02;53.39
69324;DHT22;56470;47.350;8.718;2023-03-23T08:36:57;15.99;53.19
69324;DHT22;56470;47.350;8.718;2023-03-23T08:39:23;15.97;53.20
69324;DHT22;56470;47.350;8.718;2023-03-23T08:41:50;15.94;52.82
69324;DHT22;56470;47.350;8.718;2023-03-23T08:44:15;15.90;52.92
69324;DHT22;56470;47.350;8.718;2023-03-23T08:46:41;15.81;53.24
69324;DHT22;56470;47.350;8.718;2023-03-23T08:49:07;15.80;53.38
69324;DHT22;56470;47.350;8.718;2023-03-23T08:51:33;15.75;53.21
69324;DHT22;56470;47.350;8.718;2023-03-23T08:53:58;15.71;52.59
69324;DHT22;56470;47.350;8.718;2023-03-23T08:56:23;15.71;52.77
69324;DHT22;56470;47.350;8.718;2023-03-23T08:58:49;15.75;53.02
69324;DHT22;56470;47.350;8.718;2023-03-23T09:01:15;15.77;52.92
69324;DHT22;56470;47.350;8.718;2023-03-23T09:03:40;15.80;52.85
69324;DHT22;56470;47.350;8.718;2023-03-23T09:06:07;15.84;52.69
69324;DHT22;56470;47.350;8.718;2023-03-23T09:08:34;15.90;52.70
69324;DHT22;56470;47.350;8.718;2023-03-23T09:11:05;15.95;52.70
69324;DHT22;56470;47.350;8.718;2023-03-23T09:13:35;15.99;52.44
69324;DHT22;56470;47.350;8.718;2023-03-23T09:16:01;16.05;52.36
69324;DHT22;56470;47.350;8.718;2023-03-23T09:18:28;16.10;52.17
69324;DHT22;56470;47.350;8.718;2023-03-23T09:20:54;16.19;51.88
69324;DHT22;56470;47.350;8.718;2023-03-23T09:23:20;16.22;51.77
69324;DHT22;56470;47.350;8.718;2023-03-23T09:25:48;16.30;51.59
69324;DHT22;56470;47.350;8.718;2023-03-23T09:28:14;16.36;51.31
69324;DHT22;56470;47.350;8.718;2023-03-23T09:30:40;16.36;51.00
69324;DHT22;56470;47.350;8.718;2023-03-23T09:33:06;16.39;50.84
69324;DHT22;56470;47.350;8.718;2023-03-23T09:35:33;16.43;50.91
69324;DHT22;56470;47.350;8.718;2023-03-23T09:37:59;16.43;50.86
69324;DHT22;56470;47.350;8.718;2023-03-23T09:40:50;16.47;49.40
69324;DHT22;56470;47.350;8.718;2023-03-23T09:46:29;16.57;50.28
69324;DHT22;56470;47.350;8.718;2023-03-23T09:48:59;16.70;49.54
69324;DHT22;56470;47.350;8.718;2023-03-23T09:51:45;16.78;49.62
69324;DHT22;56470;47.350;8.718;2023-03-23T09:54:22;16.84;50.08
69324;DHT22;56470;47.350;8.718;2023-03-23T09:56:49;16.92;50.32
69324;DHT22;56470;47.350;8.718;2023-03-23T09:59:27;16.95;50.14
69324;DHT22;56470;47.350;8.718;2023-03-23T10:01:58;16.99;49.94
69324;DHT22;56470;47.350;8.718;2023-03-23T10:06:50;17.08;49.98
69324;DHT22;56470;47.350;8.718;2023-03-23T10:09:18;17.15;49.94
69324;DHT22;56470;47.350;8.718;2023-03-23T10:12:00;17.12;48.09
69324;DHT22;56470;47.350;8.718;2023-03-23T10:14:36;17.19;48.76
69324;DHT22;56470;47.350;8.718;2023-03-23T10:17:14;17.22;47.55
69324;DHT22;56470;47.350;8.718;2023-03-23T10:19:49;17.27;47.51
69324;DHT22;56470;47.350;8.718;2023-03-23T10:22:22;17.25;48.20
69324;DHT22;56470;47.350;8.718;2023-03-23T10:25:00;17.26;47.94
69324;DHT22;56470;47.350;8.718;2023-03-23T10:27:52;17.26;46.39
69324;DHT22;56470;47.350;8.718;2023-03-23T10:30:33;17.29;47.88
69324;DHT22;56470;47.350;8.718;2023-03-23T10:33:38;17.27;46.25
69324;DHT22;56470;47.350;8.718;2023-03-23T10:36:15;17.30;47.08
69324;DHT22;56470;47.350;8.718;2023-03-23T10:38:46;17.33;47.63
69324;DHT22;56470;47.350;8.718;2023-03-23T10:41:16;17.30;47.53
69324;DHT22;56470;47.350;8.718;2023-03-23T10:43:42;17.30;47.59
69324;DHT22;56470;47.350;8.718;2023-03-23T10:46:25;17.32;46.97
69324;DHT22;56470;47.350;8.718;2023-03-23T10:48:53;17.34;47.54
69324;DHT22;56470;47.350;8.718;2023-03-23T10:51:22;17.36;47.55
69324;DHT22;56470;47.350;8.718;2023-03-23T10:53:55;17.37;47.57
69324;DHT22;56470;47.350;8.718;2023-03-23T10:58:48;17.40;47.48
69324;DHT22;56470;47.350;8.718;2023-03-23T11:01:14;17.42;47.44
69324;DHT22;56470;47.350;8.718;2023-03-23T11:03:45;17.43;47.45
69324;DHT22;56470;47.350;8.718;2023-03-23T11:06:22;17.39;47.17
69324;DHT22;56470;47.350;8.718;2023-03-23T11:08:55;17.40;47.42
69324;DHT22;56470;47.350;8.718;2023-03-23T11:11:26;17.43;47.26
69324;DHT22;56470;47.350;8.718;2023-03-23T11:14:15;17.43;46.46
69324;DHT22;56470;47.350;8.718;2023-03-23T11:16:52;17.46;46.74
69324;DHT22;56470;47.350;8.718;2023-03-23T11:19:25;17.47;47.25
69324;DHT22;56470;47.350;8.718;2023-03-23T11:22:04;17.51;47.37
69324;DHT22;56470;47.350;8.718;2023-03-23T11:24:33;17.53;47.36
69324;DHT22;56470;47.350;8.718;2023-03-23T11:26:59;17.55;47.24
69324;DHT22;56470;47.350;8.718;2023-03-23T11:29:27;17.59;47.21
69324;DHT22;56470;47.350;8.718;2023-03-23T11:32:03;17.60;46.84
69324;DHT22;56470;47.350;8.718;2023-03-23T11:34:43;17.61;46.75
69324;DHT22;56470;47.350;8.718;2023-03-23T11:39:57;17.68;46.75
69324;DHT22;56470;47.350;8.718;2023-03-23T11:42:25;17.71;47.23
69324;DHT22;56470;47.350;8.718;2023-03-23T11:45:13;17.74;46.76
69324;DHT22;56470;47.350;8.718;2023-03-23T11:47:53;17.79;47.01
69324;DHT22;56470;47.350;8.718;2023-03-23T11:50:25;17.82;46.85
69324;DHT22;56470;47.350;8.718;2023-03-23T11:55:49;17.91;46.16
69324;DHT22;56470;47.350;8.718;2023-03-23T11:58:18;17.95;46.80
69324;DHT22;56470;47.350;8.718;2023-03-23T12:01:05;17.95;45.78
69324;DHT22;56470;47.350;8.718;2023-03-23T12:06:45;18.05;46.20
69324;DHT22;56470;47.350;8.718;2023-03-23T12:16:01;18.10;45.12
69324;DHT22;56470;47.350;8.718;2023-03-23T12:21:32;18.16;45.90
69324;DHT22;56470;47.350;8.718;2023-03-23T12:24:29;18.17;44.86
69324;DHT22;56470;47.350;8.718;2023-03-23T12:27:18;18.21;45.62
69324;DHT22;56470;47.350;8.718;2023-03-23T12:44:01;18.30;44.88
69324;DHT22;56470;47.350;8.718;2023-03-23T12:54:27;18.32;45.54
69324;DHT22;56470;47.350;8.718;2023-03-23T12:57:07;18.33;44.85
69324;DHT22;56470;47.350;8.718;2023-03-23T12:59:55;18.36;44.97
69324;DHT22;56470;47.350;8.718;2023-03-23T13:02:27;18.39;45.28
69324;DHT22;56470;47.350;8.718;2023-03-23T13:05:09;18.39;44.30
69324;DHT22;56470;47.350;8.718;2023-03-23T13:07:45;18.40;44.47
69324;DHT22;56470;47.350;8.718;2023-03-23T13:10:22;18.43;44.77
69324;DHT22;56470;47.350;8.718;2023-03-23T13:12:50;18.41;45.10
69324;DHT22;56470;47.350;8.718;2023-03-23T13:15:48;18.40;44.02
69324;DHT22;56470;47.350;8.718;2023-03-23T13:18:20;18.46;44.89
69324;DHT22;56470;47.350;8.718;2023-03-23T13:21:10;18.46;43.61
69324;DHT22;56470;47.350;8.718;2023-03-23T13:23:50;18.39;44.34
69324;DHT22;56470;47.350;8.718;2023-03-23T13:26:20;18.40;44.89
69324;DHT22;56470;47.350;8.718;2023-03-23T13:29:15;18.40;44.33
69324;DHT22;56470;47.350;8.718;2023-03-23T13:31:44;18.43;45.01
69324;DHT22;56470;47.350;8.718;2023-03-23T13:34:31;18.41;44.26
69324;DHT22;56470;47.350;8.718;2023-03-23T13:39:56;18.46;44.65
69324;DHT22;56470;47.350;8.718;2023-03-23T13:42:26;18.50;45.06
69324;DHT22;56470;47.350;8.718;2023-03-23T13:49:52;18.53;44.84
69324;DHT22;56470;47.350;8.718;2023-03-23T14:05:48;18.49;45.38
69324;DHT22;56470;47.350;8.718;2023-03-23T14:08:22;18.44;45.32
69324;DHT22;56470;47.350;8.718;2023-03-23T14:10:58;18.41;45.37
69324;DHT22;56470;47.350;8.718;2023-03-23T14:16:50;18.33;45.72
69324;DHT22;56470;47.350;8.718;2023-03-23T14:19:24;18.34;45.98
69324;DHT22;56470;47.350;8.718;2023-03-23T14:21:55;18.36;46.10
69324;DHT22;56470;47.350;8.718;2023-03-23T14:24:24;18.33;46.14
69324;DHT22;56470;47.350;8.718;2023-03-23T14:27:01;18.33;46.18
69324;DHT22;56470;47.350;8.718;2023-03-23T14:29:26;18.30;46.12
69324;DHT22;56470;47.350;8.718;2023-03-23T14:31:57;18.30;46.08
69324;DHT22;56470;47.350;8.718;2023-03-23T14:34:25;18.30;46.15
69324;DHT22;56470;47.350;8.718;2023-03-23T14:36:53;18.29;46.23
69324;DHT22;56470;47.350;8.718;2023-03-23T14:39:25;18.26;46.20
69324;DHT22;56470;47.350;8.718;2023-03-23T14:41:53;18.23;46.23
69324;DHT22;56470;47.350;8.718;2023-03-23T14:44:30;18.17;46.10
69324;DHT22;56470;47.350;8.718;2023-03-23T14:47:02;18.17;46.21
69324;DHT22;56470;47.350;8.718;2023-03-23T14:49:37;18.15;46.09
69324;DHT22;56470;47.350;8.718;2023-03-23T14:52:14;18.15;45.90
69324;DHT22;56470;47.350;8.718;2023-03-23T14:54:41;18.10;46.15
69324;DHT22;56470;47.350;8.718;2023-03-23T14:57:17;18.09;46.03
69324;DHT22;56470;47.350;8.718;2023-03-23T14:59:44;18.10;46.24
69324;DHT22;56470;47.350;8.718;2023-03-23T15:02:24;18.10;46.04
69324;DHT22;56470;47.350;8.718;2023-03-23T15:04:59;18.09;46.35
69324;DHT22;56470;47.350;8.718;2023-03-23T15:07:30;18.10;46.45
69324;DHT22;56470;47.350;8.718;2023-03-23T15:09:57;18.09;46.49
69324;DHT22;56470;47.350;8.718;2023-03-23T15:12:26;18.04;46.48
69324;DHT22;56470;47.350;8.718;2023-03-23T15:14:57;18.04;46.55
69324;DHT22;56470;47.350;8.718;2023-03-23T15:17:31;18.05;46.67
69324;DHT22;56470;47.350;8.718;2023-03-23T15:20:08;18.02;46.68
69324;DHT22;56470;47.350;8.718;2023-03-23T15:22:33;18.04;46.81
69324;DHT22;56470;47.350;8.718;2023-03-23T15:27:40;18.02;46.80
69324;DHT22;56470;47.350;8.718;2023-03-23T15:32:39;18.02;46.88
69324;DHT22;56470;47.350;8.718;2023-03-23T15:35:15;18.04;47.03
69324;DHT22;56470;47.350;8.718;2023-03-23T15:37:46;17.99;47.13
69324;DHT22;56470;47.350;8.718;2023-03-23T15:40:22;18.01;47.21
69324;DHT22;56470;47.350;8.718;2023-03-23T15:42:48;18.02;47.27
69324;DHT22;56470;47.350;8.718;2023-03-23T15:45:26;18.01;47.40
69324;DHT22;56470;47.350;8.718;2023-03-23T15:47:52;18.02;47.31
69324;DHT22;56470;47.350;8.718;2023-03-23T15:50:33;17.98;47.52
69324;DHT22;56470;47.350;8.718;2023-03-23T15:53:00;17.96;47.37
69324;DHT22;56470;47.350;8.718;2023-03-23T15:55:29;17.96;47.36
69324;DHT22;56470;47.350;8.718;2023-03-23T15:57:56;17.92;47.38
69324;DHT22;56470;47.350;8.718;2023-03-23T16:00:26;17.92;47.43
69324;DHT22;56470;47.350;8.718;2023-03-23T16:03:00;17.92;47.42
69324;DHT22;56470;47.350;8.718;2023-03-23T16:05:26;17.88;47.37
69324;DHT22;56470;47.350;8.718;2023-03-23T16:07:52;17.87;47.37
69324;DHT22;56470;47.350;8.718;2023-03-23T16:10:21;17.82;47.45
69324;DHT22;56470;47.350;8.718;2023-03-23T16:12:47;17.81;47.61
69324;DHT22;56470;47.350;8.718;2023-03-23T16:15:13;17.81;47.73
69324;DHT22;56470;47.350;8.718;2023-03-23T16:17:39;17.81;47.73
69324;DHT22;56470;47.350;8.718;2023-03-23T16:20:20;17.79;47.84
69324;DHT22;56470;47.350;8.718;2023-03-23T16:22:46;17.78;47.82
69324;DHT22;56470;47.350;8.718;2023-03-23T16:25:12;17.79;47.93
69324;DHT22;56470;47.350;8.718;2023-03-23T16:27:38;17.71;47.99
69324;DHT22;56470;47.350;8.718;2023-03-23T16:30:25;17.67;48.77
69324;DHT22;56470;47.350;8.718;2023-03-23T16:32:54;17.63;48.34
69324;DHT22;56470;47.350;8.718;2023-03-23T16:35:22;17.59;48.45
69324;DHT22;56470;47.350;8.718;2023-03-23T16:37:49;17.55;48.48
69324;DHT22;56470;47.350;8.718;2023-03-23T16:40:16;17.53;48.63
69324;DHT22;56470;47.350;8.718;2023-03-23T16:42:42;17.51;48.66
69324;DHT22;56470;47.350;8.718;2023-03-23T16:45:08;17.54;48.79
69324;DHT22;56470;47.350;8.718;2023-03-23T16:47:33;17.53;48.80
69324;DHT22;56470;47.350;8.718;2023-03-23T16:49:59;17.55;48.86
69324;DHT22;56470;47.350;8.718;2023-03-23T16:52:24;17.55;48.97
69324;DHT22;56470;47.350;8.718;2023-03-23T16:54:50;17.57;49.03
69324;DHT22;56470;47.350;8.718;2023-03-23T16:57:18;17.54;49.19
69324;DHT22;56470;47.350;8.718;2023-03-23T16:59:43;17.53;49.26
69324;DHT22;56470;47.350;8.718;2023-03-23T17:02:10;17.53;49.33
69324;DHT22;56470;47.350;8.718;2023-03-23T17:04:36;17.50;49.44
69324;DHT22;56470;47.350;8.718;2023-03-23T17:07:06;17.50;49.56
69324;DHT22;56470;47.350;8.718;2023-03-23T17:09:32;17.50;49.68
69324;DHT22;56470;47.350;8.718;2023-03-23T17:11:57;17.46;49.73
69324;DHT22;56470;47.350;8.718;2023-03-23T17:14:23;17.42;49.87
69324;DHT22;56470;47.350;8.718;2023-03-23T17:16:48;17.39;50.04
69324;DHT22;56470;47.350;8.718;2023-03-23T17:19:13;17.36;50.20
69324;DHT22;56470;47.350;8.718;2023-03-23T17:21:39;17.33;50.29
69324;DHT22;56470;47.350;8.718;2023-03-23T17:24:06;17.30;50.44
69324;DHT22;56470;47.350;8.718;2023-03-23T17:26:31;17.27;50.49